createdAt,value
2018-09-28T00:01:20.658Z,1.80
2018-09-28T00:03:25.149Z,1.83
2018-09-28T00:05:29.688Z,2.03
2018-09-28T00:07:34.292Z,1.43
2018-09-28T00:09:38.766Z,1.63
2018-09-28T00:11:43.349Z,1.90
2018-09-28T00:13:47.860Z,1.80
2018-09-28T00:15:52.363Z,2.10
2018-09-28T00:17:56.884Z,1.63
2018-09-28T00:20:01.357Z,2.00
2018-09-28T00:22:05.849Z,1.70
2018-09-28T00:24:10.333Z,1.93
2018-09-28T00:26:14.834Z,1.90
2018-09-28T00:28:19.443Z,1.63
2018-09-28T00:30:23.927Z,1.80
2018-09-28T00:32:28.423Z,1.80
2018-09-28T00:34:32.943Z,1.93
2018-09-28T00:36:37.418Z,2.17
2018-09-28T00:38:42.576Z,2.10
2018-09-28T00:40:47.095Z,1.87
2018-09-28T00:42:51.604Z,1.60
2018-09-28T00:44:56.135Z,1.90
2018-09-28T00:47:00.591Z,1.90
2018-09-28T00:49:05.111Z,1.93
2018-09-28T00:51:09.654Z,1.90
2018-09-28T00:53:14.124Z,1.63
2018-09-28T00:55:18.655Z,1.70
2018-09-28T00:57:23.123Z,2.03
2018-09-28T00:59:27.622Z,1.83
2018-09-28T01:01:32.522Z,2.10
2018-09-28T01:03:37.071Z,1.80
2018-09-28T01:05:41.611Z,1.93
2018-09-28T01:07:46.115Z,1.63
2018-09-28T01:09:50.599Z,1.73
2018-09-28T01:11:55.126Z,1.90
2018-09-28T01:13:59.654Z,1.87
2018-09-28T01:16:04.162Z,1.90
2018-09-28T01:18:08.834Z,2.00
2018-09-28T01:20:13.294Z,1.73
2018-09-28T01:22:17.806Z,2.30
2018-09-28T01:24:22.350Z,1.80
2018-09-28T01:26:26.855Z,1.87
2018-09-28T01:28:31.374Z,2.07
2018-09-28T01:30:36.078Z,2.10
2018-09-28T01:32:40.545Z,2.00
2018-09-28T01:34:45.024Z,2.13
2018-09-28T01:36:49.508Z,2.17
2018-09-28T01:38:54.010Z,1.90
2018-09-28T01:40:58.503Z,2.00
2018-09-28T01:43:03.110Z,2.23
2018-09-28T01:45:07.629Z,2.40
2018-09-28T01:47:12.200Z,2.37
2018-09-28T01:49:16.687Z,2.27
2018-09-28T01:51:21.207Z,2.47
2018-09-28T01:53:25.726Z,2.57
2018-09-28T01:55:30.223Z,2.63
2018-09-28T01:57:34.702Z,4.10
2018-09-28T01:59:39.234Z,2.87
2018-09-28T02:01:43.806Z,2.72
2018-09-28T02:03:48.314Z,3.90
2018-09-28T02:05:52.935Z,3.77
2018-09-28T02:07:57.439Z,3.07
2018-09-28T02:10:01.943Z,2.57
2018-09-28T02:12:06.532Z,3.40
2018-09-28T02:14:11.009Z,3.07
2018-09-28T02:16:16.143Z,2.67
2018-09-28T02:18:20.621Z,2.85
2018-09-28T02:20:25.124Z,2.47
2018-09-28T02:22:29.636Z,2.42
2018-09-28T02:24:34.619Z,2.62
2018-09-28T02:26:39.134Z,2.87
2018-09-28T02:28:43.944Z,2.75
2018-09-28T02:30:48.470Z,3.00
2018-09-28T02:32:53.015Z,2.60
2018-09-28T02:34:57.542Z,2.63
2018-09-28T02:37:02.052Z,3.33
2018-09-28T02:39:08.337Z,2.43
2018-09-28T02:41:12.914Z,2.80
2018-09-28T02:43:17.373Z,2.60
2018-09-28T02:45:22.267Z,3.30
2018-09-28T02:47:26.775Z,3.23
2018-09-28T02:49:31.254Z,3.37
2018-09-28T02:51:35.844Z,3.15
2018-09-28T02:53:40.391Z,3.70
2018-09-28T02:55:45.881Z,3.20
2018-09-28T02:57:50.479Z,3.33
2018-09-28T02:59:55.031Z,3.27
2018-09-28T03:01:59.526Z,3.23
2018-09-28T03:04:04.029Z,3.12
2018-09-28T03:06:08.533Z,2.90
2018-09-28T03:08:13.080Z,3.23
2018-09-28T03:10:17.594Z,3.30
2018-09-28T03:12:22.083Z,3.50
2018-09-28T03:14:26.588Z,3.42
2018-09-28T03:16:31.210Z,3.60
2018-09-28T03:18:35.893Z,3.20
2018-09-28T03:20:40.437Z,3.25
2018-09-28T03:22:45.558Z,3.50
2018-09-28T03:24:50.043Z,3.27
2018-09-28T03:26:55.072Z,3.30
2018-09-28T03:28:59.599Z,2.77
2018-09-28T03:31:04.167Z,3.40
2018-09-28T03:33:08.776Z,3.20
2018-09-28T03:35:13.280Z,3.23
2018-09-28T03:37:17.990Z,3.07
2018-09-28T03:39:22.514Z,3.22
2018-09-28T03:41:26.955Z,2.97
2018-09-28T03:43:31.491Z,3.57
2018-09-28T03:45:35.990Z,3.83
2018-09-28T03:47:42.494Z,3.20
2018-09-28T03:49:46.967Z,3.22
2018-09-28T03:51:51.450Z,3.30
2018-09-28T03:53:56.689Z,3.47
2018-09-28T03:56:01.221Z,4.00
2018-09-28T03:58:05.859Z,4.03
2018-09-28T04:00:11.402Z,3.70
2018-09-28T04:02:17.054Z,4.00
2018-09-28T04:04:21.568Z,3.67
2018-09-28T04:06:26.087Z,3.70
2018-09-28T04:08:30.556Z,3.97
2018-09-28T04:10:35.011Z,4.28
2018-09-28T04:12:39.558Z,4.07
2018-09-28T04:14:44.087Z,4.17
2018-09-28T04:16:48.887Z,4.17
2018-09-28T04:18:53.374Z,4.28
2018-09-28T04:20:57.865Z,4.13
2018-09-28T04:23:02.296Z,4.17
2018-09-28T04:25:06.853Z,4.37
2018-09-28T04:27:11.387Z,4.33
2018-09-28T04:29:15.853Z,4.70
2018-09-28T04:31:20.327Z,4.70
2018-09-28T04:33:24.847Z,4.42
2018-09-28T04:35:29.300Z,4.37
2018-09-28T04:37:34.025Z,5.40
2018-09-28T04:39:38.447Z,5.00
2018-09-28T04:41:42.910Z,5.70
2018-09-28T04:43:47.409Z,6.70
2018-09-28T04:45:52.195Z,5.53
2018-09-28T04:47:56.646Z,5.67
2018-09-28T04:50:01.208Z,5.40
2018-09-28T04:52:05.912Z,4.47
2018-09-28T04:54:10.369Z,4.97
2018-09-28T04:56:14.859Z,5.20
2018-09-28T04:58:19.322Z,4.80
2018-09-28T05:00:23.887Z,4.63
2018-09-28T05:02:28.385Z,5.97
2018-09-28T05:04:32.846Z,5.53
2018-09-28T05:06:38.451Z,4.67
2018-09-28T05:08:43.006Z,5.40
2018-09-28T05:10:47.455Z,5.28
2018-09-28T05:12:51.911Z,4.80
2018-09-28T05:14:56.407Z,5.43
2018-09-28T05:17:00.910Z,6.20
2018-09-28T05:19:05.491Z,5.27
2018-09-28T05:21:09.967Z,5.60
2018-09-28T05:23:14.466Z,6.50
2018-09-28T05:25:19.048Z,6.33
2018-09-28T05:27:23.487Z,6.50
2018-09-28T05:29:27.943Z,6.72
2018-09-28T05:31:32.505Z,6.43
2018-09-28T05:33:37.111Z,6.87
2018-09-28T05:35:41.635Z,6.90
2018-09-28T05:37:46.135Z,7.23
2018-09-28T05:39:50.587Z,6.42
2018-09-28T05:41:55.051Z,6.03
2018-09-28T05:43:59.601Z,4.37
2018-09-28T05:46:04.094Z,4.80
2018-09-28T05:48:08.605Z,3.80
2018-09-28T05:50:13.332Z,4.10
2018-09-28T05:52:17.810Z,3.85
2018-09-28T05:54:22.287Z,3.80
2018-09-28T05:56:26.731Z,3.92
2018-09-28T05:58:36.584Z,3.80
2018-09-28T06:01:46.818Z,4.58
2018-09-28T06:03:56.375Z,3.75
2018-09-28T06:06:02.883Z,3.52
2018-09-28T06:08:07.624Z,4.05
2018-09-28T06:10:12.190Z,4.20
2018-09-28T06:12:16.727Z,4.22
2018-09-28T06:14:21.187Z,4.40
2018-09-28T06:16:25.827Z,4.07
2018-09-28T06:18:30.377Z,4.17
2018-09-28T06:20:34.862Z,4.57
2018-09-28T06:22:39.338Z,4.17
2018-09-28T06:24:43.872Z,4.27
2018-09-28T06:26:48.311Z,4.07
2018-09-28T06:28:52.792Z,4.33
2018-09-28T06:30:57.211Z,4.00
2018-09-28T06:33:01.704Z,4.12
2018-09-28T06:35:06.273Z,4.63
2018-09-28T06:37:10.839Z,4.40
2018-09-28T06:39:15.318Z,4.30
2018-09-28T06:41:19.874Z,4.67
2018-09-28T06:43:24.376Z,4.37
2018-09-28T06:45:28.888Z,4.70
2018-09-28T06:47:33.402Z,4.10
2018-09-28T06:49:37.973Z,4.30
2018-09-28T06:51:42.430Z,4.67
2018-09-28T06:53:46.983Z,4.57
2018-09-28T06:55:52.615Z,4.67
2018-09-28T06:57:57.093Z,5.00
2018-09-28T07:00:01.566Z,4.77
2018-09-28T07:02:06.067Z,4.45
2018-09-28T07:04:10.647Z,4.72
2018-09-28T07:06:16.119Z,4.80
2018-09-28T07:08:20.542Z,4.33
2018-09-28T07:10:24.986Z,5.07
2018-09-28T07:12:29.452Z,4.83
2018-09-28T07:14:33.914Z,4.30
2018-09-28T07:16:38.414Z,4.50
2018-09-28T07:18:43.110Z,4.43
2018-09-28T07:20:48.167Z,4.83
2018-09-28T07:22:53.464Z,5.28
2018-09-28T07:24:57.961Z,4.55
2018-09-28T07:27:02.407Z,5.22
2018-09-28T07:29:06.969Z,5.45
2018-09-28T07:31:11.402Z,4.93
2018-09-28T07:33:15.925Z,4.63
2018-09-28T07:35:20.460Z,4.70
2018-09-28T07:37:25.042Z,5.20
2018-09-28T07:39:29.583Z,5.37
2018-09-28T07:41:34.226Z,7.50
2018-09-28T07:43:38.747Z,8.00
2018-09-28T07:45:43.212Z,7.67
2018-09-28T07:47:47.702Z,6.53
2018-09-28T07:49:53.279Z,7.27
2018-09-28T07:51:57.828Z,6.72
2018-09-28T07:54:02.298Z,5.95
2018-09-28T07:56:06.734Z,6.10
2018-09-28T07:58:11.171Z,6.70
2018-09-28T08:00:16.195Z,6.37
2018-09-28T08:02:20.644Z,6.47
2018-09-28T08:04:25.115Z,6.87
2018-09-28T08:06:29.532Z,6.10
2018-09-28T08:08:34.917Z,6.15
2018-09-28T08:10:39.420Z,6.65
2018-09-28T08:12:44.842Z,7.20
2018-09-28T08:14:49.288Z,6.53
2018-09-28T08:16:54.838Z,7.00
2018-09-28T08:18:59.331Z,7.95
2018-09-28T08:21:03.887Z,7.20
2018-09-28T08:23:08.346Z,7.27
2018-09-28T08:25:12.822Z,7.83
2018-09-28T08:27:17.350Z,7.27
2018-09-28T08:29:21.815Z,7.53
2018-09-28T08:31:26.319Z,7.78
2018-09-28T08:33:30.786Z,7.53
2018-09-28T08:35:35.643Z,7.27
2018-09-28T08:37:40.243Z,6.17
2018-09-28T08:39:44.731Z,7.15
2018-09-28T08:41:49.201Z,6.10
2018-09-28T08:43:53.696Z,6.97
2018-09-28T08:45:58.165Z,7.28
2018-09-28T08:48:02.698Z,7.43
2018-09-28T08:50:07.227Z,7.30
2018-09-28T08:52:11.695Z,11.03
2018-09-28T08:54:16.210Z,8.20
2018-09-28T08:56:20.710Z,8.00
2018-09-28T08:58:25.350Z,7.67
2018-09-28T09:00:29.802Z,7.50
2018-09-28T09:02:35.327Z,8.05
2018-09-28T09:04:39.807Z,8.83
2018-09-28T09:06:44.279Z,11.87
2018-09-28T09:08:49.440Z,10.40
2018-09-28T09:10:53.976Z,9.60
2018-09-28T09:12:58.428Z,8.40
2018-09-28T09:15:03.527Z,9.83
2018-09-28T09:17:07.976Z,10.57
2018-09-28T09:19:12.488Z,11.35
2018-09-28T09:21:16.979Z,12.13
2018-09-28T09:23:21.538Z,11.12
2018-09-28T09:25:26.019Z,10.77
2018-09-28T09:27:31.305Z,9.70
2018-09-28T09:29:35.822Z,8.98
2018-09-28T09:31:40.317Z,9.17
2018-09-28T09:33:44.862Z,9.48
2018-09-28T09:35:49.542Z,9.87
2018-09-28T09:37:53.994Z,9.13
2018-09-28T09:39:58.611Z,9.33
2018-09-28T09:42:03.087Z,9.13
2018-09-28T09:44:07.638Z,12.45
2018-09-28T09:46:12.130Z,12.75
2018-09-28T09:48:16.631Z,10.78
2018-09-28T09:50:21.227Z,10.83
2018-09-28T09:52:25.834Z,9.93
2018-09-28T09:54:30.316Z,13.40
2018-09-28T09:56:34.806Z,12.43
2018-09-28T09:58:39.240Z,11.65
2018-09-28T10:00:49.820Z,12.45
2018-09-28T10:02:59.354Z,14.30
2018-09-28T10:05:04.699Z,14.20
2018-09-28T10:07:09.212Z,13.75
2018-09-28T10:09:14.615Z,14.03
2018-09-28T10:11:19.143Z,13.32
2018-09-28T10:13:24.566Z,14.53
2018-09-28T10:15:29.092Z,14.35
2018-09-28T10:17:33.543Z,13.80
2018-09-28T10:19:38.138Z,13.38
2018-09-28T10:21:42.630Z,12.57
2018-09-28T10:23:47.123Z,12.70
2018-09-28T10:25:51.625Z,11.83
2018-09-28T10:27:56.131Z,12.60
2018-09-28T10:30:00.598Z,12.00
2018-09-28T10:32:05.101Z,10.90
2018-09-28T10:34:09.687Z,9.70
2018-09-28T10:36:14.177Z,11.60
2018-09-28T10:38:18.674Z,10.05
2018-09-28T10:40:23.227Z,9.80
2018-09-28T10:42:27.631Z,6.83
2018-09-28T10:44:32.091Z,5.67
2018-09-28T10:46:36.615Z,4.70
2018-09-28T10:48:41.034Z,4.27
2018-09-28T10:50:45.580Z,3.50
2018-09-28T10:52:50.172Z,3.85
2018-09-28T10:54:54.572Z,4.03
2018-09-28T10:56:59.058Z,3.42
2018-09-28T10:59:03.532Z,3.60
2018-09-28T11:01:08.119Z,2.95
2018-09-28T11:03:12.693Z,3.17
2018-09-28T11:05:17.174Z,2.87
2018-09-28T11:07:21.674Z,3.55
2018-09-28T11:09:26.767Z,3.13
2018-09-28T11:11:31.280Z,3.15
2018-09-28T11:13:36.059Z,3.00
2018-09-28T11:15:40.556Z,2.30
2018-09-28T11:17:45.003Z,2.57
2018-09-28T11:19:49.539Z,2.30
2018-09-28T11:21:53.998Z,2.62
2018-09-28T11:23:58.496Z,2.57
2018-09-28T11:26:05.162Z,3.30
2018-09-28T11:28:09.682Z,3.57
2018-09-28T11:30:14.120Z,2.95
2018-09-28T11:32:18.610Z,3.27
2018-09-28T11:34:23.220Z,3.07
2018-09-28T11:36:28.067Z,2.93
2018-09-28T11:38:32.570Z,3.80
2018-09-28T11:40:37.133Z,2.43
2018-09-28T11:42:42.083Z,2.87
2018-09-28T11:44:46.564Z,2.53
2018-09-28T11:46:51.078Z,2.30
2018-09-28T11:48:55.547Z,2.33
2018-09-28T11:50:59.990Z,2.45
2018-09-28T11:53:04.503Z,2.42
2018-09-28T11:55:09.006Z,2.43
2018-09-28T11:57:14.429Z,2.60
2018-09-28T11:59:18.890Z,1.53
2018-09-28T12:01:23.353Z,2.27
2018-09-28T12:03:27.893Z,2.37
2018-09-28T12:05:32.334Z,2.15
2018-09-28T12:07:36.787Z,1.62
2018-09-28T12:09:41.276Z,2.20
2018-09-28T12:11:45.741Z,2.65
2018-09-28T12:13:50.220Z,1.77
2018-09-28T12:15:54.681Z,2.20
2018-09-28T12:17:59.192Z,2.23
2018-09-28T12:20:03.639Z,2.80
2018-09-28T12:22:08.714Z,2.40
2018-09-28T12:24:13.218Z,3.15
2018-09-28T12:26:18.599Z,2.67
2018-09-28T12:28:23.098Z,2.40
2018-09-28T12:30:29.474Z,2.62
2018-09-28T12:32:34.058Z,3.17
2018-09-28T12:34:38.525Z,2.50
2018-09-28T12:36:43.471Z,2.33
2018-09-28T12:38:47.923Z,2.50
2018-09-28T12:40:55.110Z,3.00
2018-09-28T12:43:00.784Z,3.05
2018-09-28T12:45:07.463Z,5.00
2018-09-28T12:47:11.880Z,4.03
2018-09-28T12:49:17.357Z,5.92
2018-09-28T12:51:22.088Z,4.27
2018-09-28T12:53:27.750Z,8.98
2018-09-28T12:55:32.274Z,5.10
2018-09-28T12:57:36.856Z,3.90
2018-09-28T12:59:41.312Z,2.83
2018-09-28T13:01:47.664Z,3.00
2018-09-28T13:03:52.319Z,2.47
2018-09-28T13:05:57.004Z,3.10
2018-09-28T13:08:01.479Z,3.17
2018-09-28T13:10:09.745Z,2.83
2018-09-28T13:12:15.404Z,2.70
2018-09-28T13:14:19.909Z,2.87
2018-09-28T13:16:27.598Z,2.57
2018-09-28T13:18:32.145Z,2.73
2018-09-28T13:20:38.109Z,2.70
2018-09-28T13:22:42.618Z,2.20
2018-09-28T13:24:47.170Z,2.02
2018-09-28T13:26:51.706Z,2.80
2018-09-28T13:28:56.342Z,2.60
2018-09-28T13:31:00.998Z,3.10
2018-09-28T13:33:05.520Z,2.60
2018-09-28T13:35:10.226Z,2.63
2018-09-28T13:37:15.549Z,2.40
2018-09-28T13:39:20.062Z,2.27
2018-09-28T13:41:24.595Z,2.47
2018-09-28T13:43:29.147Z,2.05
2018-09-28T13:45:34.437Z,2.10
2018-09-28T13:47:38.831Z,2.27
2018-09-28T13:49:43.364Z,1.80
2018-09-28T13:51:47.875Z,2.30
2018-09-28T13:53:52.495Z,2.15
2018-09-28T13:55:58.039Z,2.10
2018-09-28T13:58:02.506Z,2.30
2018-09-28T14:00:07.988Z,2.60
2018-09-28T14:02:13.210Z,2.17
2018-09-28T14:04:17.692Z,1.65
2018-09-28T14:06:22.801Z,1.82
2018-09-28T14:08:28.413Z,1.40
2018-09-28T14:10:32.910Z,1.72
2018-09-28T14:12:37.545Z,1.67
2018-09-28T14:14:42.021Z,1.53
2018-09-28T14:16:47.405Z,1.67
2018-09-28T14:18:51.891Z,1.90
2018-09-28T14:20:56.910Z,1.52
2018-09-28T14:23:01.413Z,1.60
2018-09-28T14:25:05.905Z,1.80
2018-09-28T14:27:10.697Z,2.05
2018-09-28T14:29:15.947Z,1.77
2018-09-28T14:31:20.543Z,1.90
2018-09-28T14:33:25.066Z,1.60
2018-09-28T14:35:29.559Z,1.62
2018-09-28T14:37:34.014Z,2.03
2018-09-28T14:39:38.540Z,1.53
2018-09-28T14:41:43.053Z,1.20
2018-09-28T14:43:48.322Z,1.63
2018-09-28T14:45:52.886Z,1.60
2018-09-28T14:47:57.356Z,1.50
2018-09-28T14:50:01.826Z,1.80
2018-09-28T14:52:06.444Z,1.30
2018-09-28T14:54:11.076Z,1.23
2018-09-28T14:56:15.596Z,1.75
2018-09-28T14:58:21.066Z,1.57
2018-09-28T15:00:25.749Z,2.08
2018-09-28T15:02:30.318Z,1.33
2018-09-28T15:04:34.840Z,1.92
2018-09-28T15:06:39.636Z,1.60
2018-09-28T15:08:44.077Z,1.45
2018-09-28T15:10:48.618Z,1.25
2018-09-28T15:12:53.007Z,1.20
2018-09-28T15:14:57.454Z,1.47
2018-09-28T15:17:02.438Z,1.53
2018-09-28T15:19:07.220Z,1.53
2018-09-28T15:21:12.897Z,1.72
2018-09-28T15:23:17.430Z,2.97
2018-09-28T15:25:21.930Z,1.20
2018-09-28T15:27:26.339Z,1.63
2018-09-28T15:29:30.877Z,1.65
2018-09-28T15:31:36.080Z,2.07
2018-09-28T15:33:40.495Z,1.33
2018-09-28T15:35:45.564Z,1.37
2018-09-28T15:37:51.158Z,1.07
2018-09-28T15:39:55.719Z,1.82
2018-09-28T15:42:01.536Z,1.70
2018-09-28T15:44:08.115Z,1.40
2018-09-28T15:46:13.134Z,1.37
2018-09-28T15:48:18.311Z,1.52
2018-09-28T15:50:24.111Z,1.02
2018-09-28T15:52:28.568Z,1.20
2018-09-28T15:54:33.081Z,1.30
2018-09-28T15:56:38.298Z,1.60
2018-09-28T15:58:42.744Z,2.10
2018-09-28T16:00:47.210Z,1.30
2018-09-28T16:02:51.676Z,1.47
2018-09-28T16:04:56.244Z,1.20
2018-09-28T16:07:00.749Z,1.00
2018-09-28T16:09:07.315Z,2.70
2018-09-28T16:11:12.098Z,16.85
2018-09-28T16:13:17.475Z,18.73
2018-09-28T16:15:21.986Z,16.85
2018-09-28T16:17:26.475Z,59.80
2018-09-28T16:19:31.014Z,41.27
2018-09-28T16:21:35.558Z,26.83
2018-09-28T16:23:40.020Z,36.47
2018-09-28T16:25:44.568Z,25.13
2018-09-28T16:27:49.038Z,22.00
2018-09-28T16:29:54.680Z,9.83
2018-09-28T16:31:59.182Z,5.42
2018-09-28T16:34:03.646Z,2.33
2018-09-28T16:36:08.248Z,2.73
2018-09-28T16:38:12.711Z,1.10
2018-09-28T16:40:17.265Z,1.60
2018-09-28T16:42:21.759Z,1.87
2018-09-28T16:44:26.224Z,1.72
2018-09-28T16:46:30.686Z,1.37
2018-09-28T16:48:35.167Z,1.40
2018-09-28T16:50:39.694Z,1.77
2018-09-28T16:52:44.675Z,1.50
2018-09-28T16:54:49.128Z,1.37
2018-09-28T16:56:54.798Z,1.73
2018-09-28T16:58:59.251Z,1.63
2018-09-28T17:01:03.754Z,2.30
2018-09-28T17:03:08.759Z,2.03
2018-09-28T17:05:13.236Z,1.77
2018-09-28T17:07:17.734Z,3.10
2018-09-28T17:09:22.244Z,2.00
2018-09-28T17:11:26.708Z,2.67
2018-09-28T17:13:31.132Z,6.15
2018-09-28T17:15:35.623Z,3.13
2018-09-28T17:17:40.088Z,2.75
2018-09-28T17:19:44.529Z,3.52
2018-09-28T17:21:49.036Z,2.12
2018-09-28T17:23:53.454Z,4.50
2018-09-28T17:25:57.992Z,3.27
2018-09-28T17:28:02.469Z,10.82
2018-09-28T17:30:07.602Z,4.90
2018-09-28T17:32:12.090Z,22.98
2018-09-28T17:34:16.560Z,16.50
2018-09-28T17:36:21.111Z,10.80
2018-09-28T17:38:25.531Z,8.03
2018-09-28T17:40:30.014Z,8.85
2018-09-28T17:42:34.702Z,2.57
2018-09-28T17:44:39.151Z,12.77
2018-09-28T17:46:43.611Z,9.93
2018-09-28T17:48:48.105Z,2.20
2018-09-28T17:50:52.587Z,2.87
2018-09-28T17:52:57.210Z,3.12
2018-09-28T17:55:01.666Z,2.37
2018-09-28T17:57:06.386Z,18.47
2018-09-28T17:59:13.331Z,5.73
2018-09-28T18:01:17.870Z,5.23
2018-09-28T18:03:22.557Z,2.57
2018-09-28T18:05:27.017Z,1.37
2018-09-28T18:07:31.534Z,3.00
2018-09-28T18:09:36.069Z,5.63
2018-09-28T18:11:40.618Z,19.07
2018-09-28T18:13:45.229Z,6.85
2018-09-28T18:15:49.767Z,5.65
2018-09-28T18:17:54.477Z,2.75
2018-09-28T18:19:59.093Z,1.52
2018-09-28T18:22:03.595Z,1.07
2018-09-28T18:24:08.235Z,1.27
2018-09-28T18:26:12.719Z,1.20
2018-09-28T18:28:17.314Z,0.75
2018-09-28T18:30:21.852Z,0.67
2018-09-28T18:32:26.371Z,1.20
2018-09-28T18:34:30.791Z,1.02
2018-09-28T18:36:35.285Z,1.17
2018-09-28T18:38:39.758Z,2.30
2018-09-28T18:40:44.271Z,1.20
2018-09-28T18:42:48.899Z,1.30
2018-09-28T18:44:53.351Z,1.37
2018-09-28T18:46:58.065Z,1.70
2018-09-28T18:49:03.130Z,1.40
2018-09-28T18:51:07.583Z,1.87
2018-09-28T18:53:12.064Z,1.35
2018-09-28T18:55:16.871Z,1.92
2018-09-28T18:57:21.418Z,1.10
2018-09-28T18:59:26.103Z,1.10
2018-09-28T19:01:30.566Z,1.47
2018-09-28T19:03:35.047Z,1.50
2018-09-28T19:05:39.631Z,1.50
2018-09-28T19:07:44.242Z,1.77
2018-09-28T19:09:48.774Z,1.90
2018-09-28T19:11:53.254Z,1.52
2018-09-28T19:13:57.775Z,1.22
2018-09-28T19:20:40.766Z,2.67
2018-09-28T19:22:45.247Z,2.50
2018-09-28T19:24:49.706Z,3.37
2018-09-28T19:26:54.307Z,4.30
2018-09-28T19:28:58.830Z,5.47
2018-09-28T19:31:03.302Z,4.27
2018-09-28T19:33:08.442Z,3.00
2018-09-28T19:35:13.186Z,1.57
2018-09-28T19:37:17.674Z,1.57
2018-09-28T19:39:22.130Z,1.40
2018-09-28T19:41:26.606Z,1.00
2018-09-28T19:43:31.324Z,2.53
2018-09-28T19:45:35.792Z,1.30
2018-09-28T19:47:40.263Z,1.47
2018-09-28T19:49:44.759Z,1.90
2018-09-28T19:51:49.236Z,1.90
2018-09-28T19:53:53.859Z,2.43
2018-09-28T19:55:58.314Z,1.60
2018-09-28T19:58:02.850Z,1.60
2018-09-28T20:00:08.314Z,1.97
2018-09-28T20:02:12.823Z,1.17
2018-09-28T20:04:17.303Z,1.50
2018-09-28T20:06:21.853Z,0.90
2018-09-28T20:08:26.318Z,1.10
2018-09-28T20:10:30.794Z,1.20
2018-09-28T20:12:35.243Z,0.90
2018-09-28T20:14:39.803Z,1.00
2018-09-28T20:16:45.517Z,1.00
2018-09-28T20:18:50.034Z,0.87
2018-09-28T20:20:54.487Z,0.90
2018-09-28T20:22:58.947Z,0.70
2018-09-28T20:25:03.431Z,1.00
2018-09-28T20:27:08.069Z,0.80
2018-09-28T20:29:12.530Z,2.50
2018-09-28T20:31:17.368Z,1.07
2018-09-28T20:33:21.792Z,0.80
2018-09-28T20:35:26.274Z,0.70
2018-09-28T20:37:30.750Z,0.60
2018-09-28T20:39:35.267Z,0.70
2018-09-28T20:41:39.708Z,1.00
2018-09-28T20:43:44.155Z,1.00
2018-09-28T20:45:48.679Z,0.53
2018-09-28T20:47:53.154Z,0.97
2018-09-28T20:49:57.604Z,0.67
2018-09-28T20:52:02.087Z,0.87
2018-09-28T20:54:07.479Z,0.80
2018-09-28T20:56:11.927Z,0.60
2018-09-28T20:58:16.439Z,0.63
2018-09-28T21:00:20.925Z,0.83
2018-09-28T21:02:25.390Z,0.77
2018-09-28T21:04:30.033Z,0.70
2018-09-28T21:06:34.478Z,0.90
2018-09-28T21:08:38.929Z,1.00
2018-09-28T21:10:43.990Z,1.23
2018-09-28T21:12:49.251Z,0.70
2018-09-28T21:14:53.750Z,0.93
2018-09-28T21:16:58.302Z,1.20
2018-09-28T21:19:02.820Z,0.77
2018-09-28T21:21:07.291Z,0.50
2018-09-28T21:23:11.843Z,0.63
2018-09-28T21:25:16.306Z,0.70
2018-09-28T21:27:20.706Z,0.60
2018-09-28T21:29:25.199Z,0.67
2018-09-28T21:31:29.602Z,0.60
2018-09-28T21:33:34.107Z,0.57
2018-09-28T21:35:38.595Z,0.80
2018-09-28T21:37:43.087Z,0.80
2018-09-28T21:39:47.591Z,0.60
2018-09-28T21:41:52.068Z,0.70
2018-09-28T21:43:56.657Z,0.60
2018-09-28T21:46:01.184Z,0.70
2018-09-28T21:48:05.618Z,0.63
2018-09-28T21:50:10.132Z,0.60
2018-09-28T21:52:14.584Z,0.60
2018-09-28T21:54:19.000Z,0.73
2018-09-28T21:56:23.507Z,0.70
2018-09-28T21:58:27.979Z,0.50
2018-09-28T22:00:36.766Z,0.60
2018-09-28T22:02:41.204Z,0.70
2018-09-28T22:04:45.725Z,0.80
2018-09-28T22:06:50.204Z,0.50
2018-09-28T22:08:54.819Z,0.60
2018-09-28T22:10:59.299Z,0.53
2018-09-28T22:13:03.838Z,0.60
2018-09-28T22:15:08.560Z,0.80
2018-09-28T22:17:13.006Z,0.50
2018-09-28T22:19:17.583Z,0.80
2018-09-28T22:21:22.152Z,0.90
2018-09-28T22:23:26.699Z,0.60
2018-09-28T22:25:31.305Z,0.70
2018-09-28T22:27:35.798Z,0.53
2018-09-28T22:29:40.276Z,1.07
2018-09-28T22:31:44.826Z,0.60
2018-09-28T22:33:49.346Z,1.00
2018-09-28T22:35:54.357Z,0.57
2018-09-28T22:37:58.860Z,0.80
2018-09-28T22:40:03.676Z,0.97
2018-09-28T22:42:08.625Z,0.83
2018-09-28T22:44:13.192Z,0.67
2018-09-28T22:46:17.681Z,0.70
2018-09-28T22:48:22.196Z,0.60
2018-09-28T22:50:27.506Z,0.77
2018-09-28T22:52:32.845Z,0.57
2018-09-28T22:54:37.469Z,1.20
2018-09-28T22:56:41.951Z,0.80
2018-09-28T22:58:46.630Z,0.80
2018-09-28T23:00:52.258Z,0.90
2018-09-28T23:02:57.323Z,0.73
2018-09-28T23:05:03.490Z,0.77
2018-09-28T23:07:08.690Z,0.80
2018-09-28T23:09:13.272Z,0.63
2018-09-28T23:11:17.731Z,0.70
2018-09-28T23:13:22.243Z,0.93
2018-09-28T23:15:26.715Z,0.67
2018-09-28T23:17:31.345Z,0.87
2018-09-28T23:19:36.117Z,0.70
2018-09-28T23:21:40.624Z,0.70
2018-09-28T23:23:45.121Z,0.80
2018-09-28T23:25:49.590Z,0.60
2018-09-28T23:27:54.035Z,0.67
2018-09-28T23:29:58.507Z,0.70
2018-09-28T23:32:03.034Z,0.80
2018-09-28T23:34:08.074Z,0.50
2018-09-28T23:36:12.507Z,0.60
2018-09-28T23:38:18.450Z,1.00
2018-09-28T23:40:22.890Z,0.70
2018-09-28T23:42:27.508Z,0.70
2018-09-28T23:44:31.962Z,0.53
2018-09-28T23:46:36.479Z,0.57
2018-09-28T23:48:40.941Z,0.73
2018-09-28T23:50:45.429Z,0.50
2018-09-28T23:52:50.667Z,0.60
2018-09-28T23:54:55.542Z,0.47
2018-09-28T23:57:00.009Z,0.90
2018-09-28T23:59:04.538Z,0.70
